createdAt,value
2019-02-09T00:01:53.253Z,40.68
2019-02-09T00:04:22.019Z,41.23
2019-02-09T00:06:51.012Z,40.23
2019-02-09T00:09:19.894Z,40.24
2019-02-09T00:11:46.856Z,42.17
2019-02-09T00:14:13.837Z,42.33
2019-02-09T00:16:41.296Z,41.88
2019-02-09T00:19:08.163Z,40.31
2019-02-09T00:21:35.042Z,40.27
2019-02-09T00:24:01.939Z,41.40
2019-02-09T00:26:30.761Z,42.20
2019-02-09T00:28:58.109Z,43.48
2019-02-09T00:31:25.103Z,43.21
2019-02-09T00:33:54.127Z,43.48
2019-02-09T00:36:22.581Z,45.19
2019-02-09T00:38:49.957Z,46.70
2019-02-09T00:41:17.283Z,44.10
2019-02-09T00:43:44.597Z,42.19
2019-02-09T00:46:11.606Z,41.64
2019-02-09T00:48:38.576Z,41.97
2019-02-09T00:51:05.937Z,42.83
2019-02-09T00:53:33.360Z,42.90
2019-02-09T00:56:00.334Z,42.99
2019-02-09T00:58:27.259Z,42.76
2019-02-09T01:00:54.354Z,42.22
2019-02-09T01:03:25.212Z,42.08
2019-02-09T01:05:52.261Z,42.77
2019-02-09T01:08:20.305Z,42.72
2019-02-09T01:10:47.703Z,41.78
2019-02-09T01:13:14.623Z,41.76
2019-02-09T01:15:41.636Z,41.21
2019-02-09T01:18:08.652Z,40.21
2019-02-09T01:20:36.032Z,40.63
2019-02-09T01:23:04.258Z,40.18
2019-02-09T01:25:31.636Z,39.89
2019-02-09T01:27:58.952Z,39.22
2019-02-09T01:30:26.392Z,38.82
2019-02-09T01:32:54.558Z,38.65
2019-02-09T01:35:23.125Z,38.66
2019-02-09T01:37:50.126Z,37.50
2019-02-09T01:40:17.437Z,37.69
2019-02-09T01:42:44.696Z,37.27
2019-02-09T01:45:11.668Z,37.14
2019-02-09T01:47:39.056Z,37.18
2019-02-09T01:50:08.916Z,38.22
2019-02-09T01:52:35.921Z,37.63
2019-02-09T01:55:02.998Z,36.83
2019-02-09T01:57:38.607Z,37.15
2019-02-09T02:00:10.714Z,37.00
2019-02-09T02:02:36.487Z,36.90
2019-02-09T02:05:05.374Z,36.09
2019-02-09T02:07:35.935Z,37.45
2019-02-09T02:10:03.204Z,36.47
2019-02-09T02:12:30.748Z,37.54
2019-02-09T02:14:57.741Z,36.72
2019-02-09T02:17:24.864Z,35.84
2019-02-09T02:19:53.810Z,37.51
2019-02-09T02:22:23.751Z,36.75
2019-02-09T02:24:52.441Z,37.63
2019-02-09T02:27:21.745Z,38.60
2019-02-09T02:29:58.322Z,39.10
2019-02-09T02:32:22.158Z,39.78
2019-02-09T02:34:53.448Z,40.03
2019-02-09T02:37:20.840Z,39.75
2019-02-09T02:39:47.839Z,41.51
2019-02-09T02:42:14.803Z,40.63
2019-02-09T02:44:42.090Z,41.62
2019-02-09T02:47:09.104Z,41.38
2019-02-09T02:49:36.088Z,41.03
2019-02-09T02:52:03.113Z,41.53
2019-02-09T02:54:30.085Z,40.85
2019-02-09T02:56:58.724Z,42.45
2019-02-09T02:59:26.086Z,42.53
2019-02-09T03:01:53.081Z,40.85
2019-02-09T03:04:20.445Z,39.80
2019-02-09T03:06:47.907Z,41.71
2019-02-09T03:09:15.013Z,40.53
2019-02-09T03:11:42.015Z,40.39
2019-02-09T03:14:09.016Z,39.11
2019-02-09T03:16:36.297Z,38.03
2019-02-09T03:19:03.320Z,38.00
2019-02-09T03:21:30.575Z,40.59
2019-02-09T03:23:57.535Z,41.94
2019-02-09T03:26:24.566Z,41.95
2019-02-09T03:28:51.624Z,41.90
2019-02-09T03:31:18.615Z,42.39
2019-02-09T03:33:45.635Z,42.44
2019-02-09T03:36:12.633Z,42.08
2019-02-09T03:38:42.721Z,39.76
2019-02-09T03:41:09.698Z,38.86
2019-02-09T03:43:39.495Z,39.06
2019-02-09T03:46:08.459Z,38.61
2019-02-09T03:48:35.092Z,39.38
2019-02-09T03:51:03.305Z,38.79
2019-02-09T03:53:33.469Z,38.92
2019-02-09T03:56:00.479Z,39.99
2019-02-09T03:58:29.213Z,41.79
2019-02-09T04:00:56.133Z,40.09
2019-02-09T04:03:23.802Z,40.46
2019-02-09T04:05:50.767Z,41.96
2019-02-09T04:08:17.826Z,40.55
2019-02-09T04:10:45.175Z,39.94
2019-02-09T04:13:13.560Z,40.07
2019-02-09T04:15:42.190Z,41.13
2019-02-09T04:18:09.626Z,39.87
2019-02-09T04:20:36.568Z,39.25
2019-02-09T04:23:03.660Z,38.60
2019-02-09T04:25:31.869Z,38.80
2019-02-09T04:27:58.792Z,38.12
2019-02-09T04:30:25.733Z,39.45
2019-02-09T04:32:53.822Z,37.99
2019-02-09T04:35:20.857Z,37.10
2019-02-09T04:37:47.863Z,37.23
2019-02-09T04:40:15.171Z,37.70
2019-02-09T04:42:44.280Z,36.74
2019-02-09T04:45:11.624Z,37.53
2019-02-09T04:47:38.580Z,37.29
2019-02-09T04:50:05.588Z,36.77
2019-02-09T04:52:34.245Z,36.41
2019-02-09T04:55:01.282Z,36.71
2019-02-09T04:57:28.634Z,36.96
2019-02-09T04:59:55.726Z,36.72
2019-02-09T05:02:23.132Z,36.42
2019-02-09T05:04:53.121Z,36.12
2019-02-09T05:07:21.769Z,36.54
2019-02-09T05:09:49.187Z,36.51
2019-02-09T05:12:16.192Z,36.92
2019-02-09T05:14:43.325Z,36.58
2019-02-09T05:17:10.386Z,36.62
2019-02-09T05:19:40.371Z,36.59
2019-02-09T05:22:07.681Z,36.50
2019-02-09T05:24:34.671Z,36.74
2019-02-09T05:27:02.091Z,36.77
2019-02-09T05:29:29.151Z,36.77
2019-02-09T05:31:56.097Z,36.62
2019-02-09T05:34:23.159Z,37.27
2019-02-09T05:36:50.198Z,37.26
2019-02-09T05:39:19.173Z,37.29
2019-02-09T05:41:45.810Z,37.20
2019-02-09T05:44:12.815Z,37.29
2019-02-09T05:46:39.814Z,37.64
2019-02-09T05:49:06.856Z,37.23
2019-02-09T05:51:33.798Z,36.92
2019-02-09T05:54:00.731Z,37.09
2019-02-09T05:56:27.642Z,37.68
2019-02-09T05:58:54.600Z,37.23
2019-02-09T06:01:22.020Z,37.98
2019-02-09T06:03:49.012Z,38.50
2019-02-09T06:06:15.934Z,37.52
2019-02-09T06:08:42.821Z,37.93
2019-02-09T06:11:09.821Z,38.29
2019-02-09T06:13:37.096Z,37.55
2019-02-09T06:16:04.046Z,38.17
2019-02-09T06:18:31.425Z,38.19
2019-02-09T06:20:58.351Z,38.23
2019-02-09T06:23:25.246Z,38.60
2019-02-09T06:25:52.187Z,38.98
2019-02-09T06:28:19.174Z,38.88
2019-02-09T06:30:46.528Z,39.26
2019-02-09T06:33:13.871Z,38.60
2019-02-09T06:35:40.843Z,39.43
2019-02-09T06:38:07.822Z,38.86
2019-02-09T06:40:35.122Z,38.81
2019-02-09T06:43:03.803Z,39.56
2019-02-09T06:45:31.937Z,39.77
2019-02-09T06:47:59.173Z,39.61
2019-02-09T06:50:26.179Z,39.76
2019-02-09T06:52:53.433Z,40.09
2019-02-09T06:55:20.409Z,40.43
2019-02-09T06:57:47.392Z,40.35
2019-02-09T07:00:14.286Z,40.10
2019-02-09T07:02:41.165Z,39.94
2019-02-09T07:05:10.210Z,40.17
2019-02-09T07:07:37.464Z,40.24
2019-02-09T07:10:04.707Z,40.28
2019-02-09T07:12:31.956Z,40.16
2019-02-09T07:14:59.220Z,40.23
2019-02-09T07:17:26.115Z,40.23
2019-02-09T07:19:55.942Z,40.13
2019-02-09T07:22:22.932Z,39.93
2019-02-09T07:24:50.207Z,40.23
2019-02-09T07:27:17.461Z,40.13
2019-02-09T07:29:44.423Z,39.84
2019-02-09T07:32:11.748Z,40.09
2019-02-09T07:34:38.709Z,39.76
2019-02-09T07:37:05.681Z,39.83
2019-02-09T07:39:32.972Z,39.83
2019-02-09T07:42:00.148Z,39.74
2019-02-09T07:44:27.094Z,39.98
2019-02-09T07:46:54.052Z,40.09
2019-02-09T07:49:20.982Z,39.74
2019-02-09T07:51:48.197Z,39.99
2019-02-09T07:54:15.061Z,39.99
2019-02-09T07:56:42.327Z,39.78
2019-02-09T07:59:09.683Z,40.24
2019-02-09T08:01:36.652Z,40.60
2019-02-09T08:04:03.622Z,39.93
2019-02-09T08:06:30.898Z,40.02
2019-02-09T08:08:57.791Z,39.86
2019-02-09T08:11:25.114Z,40.06
2019-02-09T08:13:53.817Z,40.29
2019-02-09T08:16:23.117Z,40.26
2019-02-09T08:18:50.044Z,40.46
2019-02-09T08:21:16.988Z,40.94
2019-02-09T08:23:43.905Z,40.57
2019-02-09T08:26:10.856Z,40.49
2019-02-09T08:28:38.184Z,40.43
2019-02-09T08:31:05.121Z,40.48
2019-02-09T08:33:32.328Z,39.93
2019-02-09T08:35:59.898Z,39.73
2019-02-09T08:38:26.857Z,40.04
2019-02-09T08:40:53.841Z,38.96
2019-02-09T08:43:21.291Z,38.88
2019-02-09T08:45:48.724Z,39.42
2019-02-09T08:48:15.843Z,39.97
2019-02-09T08:50:42.871Z,40.15
2019-02-09T08:53:09.826Z,41.29
2019-02-09T08:55:36.801Z,39.73
2019-02-09T08:58:03.739Z,39.16
2019-02-09T09:00:30.660Z,39.78
2019-02-09T09:02:57.611Z,40.13
2019-02-09T09:05:24.701Z,39.72
2019-02-09T09:07:51.935Z,41.96
2019-02-09T09:10:22.743Z,40.60
2019-02-09T09:12:50.055Z,40.02
2019-02-09T09:15:17.369Z,39.17
2019-02-09T09:17:44.397Z,39.34
2019-02-09T09:20:11.353Z,40.01
2019-02-09T09:22:38.403Z,40.41
2019-02-09T09:25:08.217Z,39.12
2019-02-09T09:27:35.678Z,40.71
2019-02-09T09:30:04.580Z,39.87
2019-02-09T09:32:33.298Z,39.97
2019-02-09T09:35:00.327Z,40.20
2019-02-09T09:37:27.296Z,39.39
2019-02-09T09:39:54.247Z,38.99
2019-02-09T09:42:21.346Z,38.96
2019-02-09T09:44:48.392Z,39.86
2019-02-09T09:47:21.502Z,39.65
2019-02-09T09:49:51.590Z,39.15
2019-02-09T09:52:18.628Z,38.88
2019-02-09T09:54:45.637Z,39.29
2019-02-09T09:57:12.992Z,38.99
2019-02-09T09:59:40.058Z,38.56
2019-02-09T10:02:07.107Z,38.55
2019-02-09T10:04:54.596Z,38.70
2019-02-09T10:07:26.183Z,40.03
2019-02-09T10:09:53.982Z,38.83
2019-02-09T10:12:21.155Z,38.84
2019-02-09T10:14:48.159Z,38.46
2019-02-09T10:17:17.427Z,39.00
2019-02-09T10:19:44.671Z,38.34
2019-02-09T10:22:11.919Z,37.93
2019-02-09T10:24:38.911Z,38.29
2019-02-09T10:27:05.942Z,38.87
2019-02-09T10:29:33.297Z,40.06
2019-02-09T10:32:00.646Z,39.82
2019-02-09T10:34:27.585Z,38.95
2019-02-09T10:36:54.547Z,39.49
2019-02-09T10:39:21.628Z,39.09
2019-02-09T10:41:49.160Z,38.34
2019-02-09T10:44:16.526Z,38.29
2019-02-09T10:46:43.944Z,39.61
2019-02-09T10:49:13.603Z,39.90
2019-02-09T10:51:40.501Z,39.16
2019-02-09T10:54:07.426Z,39.19
2019-02-09T10:56:34.414Z,39.39
2019-02-09T10:59:01.904Z,39.92
2019-02-09T11:01:28.873Z,40.01
2019-02-09T11:04:00.078Z,39.69
2019-02-09T11:06:27.102Z,39.71
2019-02-09T11:08:54.132Z,40.06
2019-02-09T11:11:25.302Z,39.07
2019-02-09T11:13:53.460Z,38.37
2019-02-09T11:16:20.674Z,38.53
2019-02-09T11:18:47.725Z,39.78
2019-02-09T11:21:15.056Z,39.88
2019-02-09T11:23:42.382Z,41.15
2019-02-09T11:26:10.776Z,39.68
2019-02-09T11:28:38.108Z,39.39
2019-02-09T11:31:10.993Z,38.84
2019-02-09T11:33:40.199Z,40.32
2019-02-09T11:36:13.450Z,40.72
2019-02-09T11:38:42.807Z,40.03
2019-02-09T11:41:09.935Z,39.80
2019-02-09T11:43:36.918Z,40.00
2019-02-09T11:46:04.055Z,41.88
2019-02-09T11:48:33.098Z,39.43
2019-02-09T11:51:00.110Z,38.85
2019-02-09T11:53:30.022Z,38.90
2019-02-09T11:55:57.306Z,39.03
2019-02-09T11:58:24.663Z,39.86
2019-02-09T12:00:51.555Z,39.54
2019-02-09T12:03:18.556Z,40.19
2019-02-09T12:05:45.508Z,39.55
2019-02-09T12:08:12.510Z,39.18
2019-02-09T12:10:39.739Z,39.31
2019-02-09T12:13:06.983Z,38.94
2019-02-09T12:15:34.370Z,38.61
2019-02-09T12:18:01.354Z,38.43
2019-02-09T12:20:28.713Z,40.02
2019-02-09T12:22:57.778Z,39.35
2019-02-09T12:25:24.692Z,38.63
2019-02-09T12:27:52.008Z,38.82
2019-02-09T12:30:19.271Z,38.57
2019-02-09T12:32:46.647Z,38.51
2019-02-09T12:35:13.656Z,38.30
2019-02-09T12:37:43.081Z,38.45
2019-02-09T12:40:10.004Z,38.38
2019-02-09T12:42:37.042Z,38.12
2019-02-09T12:45:04.052Z,38.34
2019-02-09T12:47:30.977Z,37.96
2019-02-09T12:49:57.967Z,37.99
2019-02-09T12:52:25.249Z,38.43
2019-02-09T12:54:52.138Z,37.82
2019-02-09T12:57:19.110Z,38.05
2019-02-09T12:59:46.059Z,37.86
2019-02-09T13:02:13.177Z,37.60
2019-02-09T13:04:40.072Z,38.87
2019-02-09T13:07:07.028Z,39.07
2019-02-09T13:09:34.029Z,38.96
2019-02-09T13:12:01.235Z,39.10
2019-02-09T13:14:28.694Z,39.22
2019-02-09T13:16:55.886Z,38.77
2019-02-09T13:19:22.776Z,39.38
2019-02-09T13:21:50.001Z,38.58
2019-02-09T13:24:17.202Z,38.05
2019-02-09T13:26:44.402Z,38.21
2019-02-09T13:29:13.026Z,37.37
2019-02-09T13:31:40.278Z,38.25
2019-02-09T13:34:07.425Z,37.65
2019-02-09T13:36:35.810Z,37.33
2019-02-09T13:39:02.748Z,37.61
2019-02-09T13:41:31.642Z,38.20
2019-02-09T13:43:58.528Z,38.58
2019-02-09T13:46:25.518Z,38.72
2019-02-09T13:48:52.793Z,38.09
2019-02-09T13:51:19.771Z,38.34
2019-02-09T13:53:46.974Z,38.14
2019-02-09T13:56:13.873Z,38.04
2019-02-09T13:58:40.808Z,38.03
2019-02-09T14:01:07.702Z,38.21
2019-02-09T14:03:34.639Z,39.69
2019-02-09T14:06:08.075Z,38.70
2019-02-09T14:08:30.337Z,38.94
2019-02-09T14:10:57.553Z,40.06
2019-02-09T14:13:24.514Z,39.67
2019-02-09T14:15:51.498Z,38.94
2019-02-09T14:18:18.418Z,39.20
2019-02-09T14:20:45.323Z,38.43
2019-02-09T14:23:12.597Z,38.04
2019-02-09T14:25:39.850Z,38.00
2019-02-09T14:28:06.812Z,38.37
2019-02-09T14:30:33.758Z,38.23
2019-02-09T14:33:01.006Z,37.85
2019-02-09T14:35:27.964Z,38.13
2019-02-09T14:37:54.865Z,37.97
2019-02-09T14:40:22.149Z,37.87
2019-02-09T14:42:49.101Z,38.52
2019-02-09T14:45:16.340Z,37.90
2019-02-09T14:47:43.304Z,38.15
2019-02-09T14:50:11.523Z,37.69
2019-02-09T14:52:40.622Z,37.29
2019-02-09T14:55:07.909Z,37.81
2019-02-09T14:57:34.882Z,37.66
2019-02-09T15:00:01.821Z,37.58
2019-02-09T15:02:30.636Z,37.36
2019-02-09T15:04:57.517Z,37.60
2019-02-09T15:07:24.433Z,37.60
2019-02-09T15:09:51.416Z,37.58
2019-02-09T15:12:18.675Z,37.42
2019-02-09T15:14:45.544Z,37.62
2019-02-09T15:17:12.517Z,37.35
2019-02-09T15:19:39.423Z,37.49
2019-02-09T15:22:06.656Z,37.41
2019-02-09T15:24:33.898Z,37.32
2019-02-09T15:27:01.162Z,37.69
2019-02-09T15:29:28.123Z,38.19
2019-02-09T15:31:55.008Z,37.96
2019-02-09T15:34:23.137Z,38.24
2019-02-09T15:36:50.705Z,38.00
2019-02-09T15:39:17.591Z,38.37
2019-02-09T15:41:48.835Z,38.17
2019-02-09T15:44:16.022Z,38.38
2019-02-09T15:46:42.898Z,38.63
2019-02-09T15:49:09.789Z,38.34
2019-02-09T15:51:36.836Z,38.69
2019-02-09T15:54:04.121Z,38.75
2019-02-09T15:56:31.482Z,38.97
2019-02-09T15:58:58.385Z,38.89
2019-02-09T16:01:28.558Z,38.78
2019-02-09T16:03:56.949Z,38.62
2019-02-09T16:06:24.436Z,38.71
2019-02-09T16:08:51.741Z,38.53
2019-02-09T16:11:19.024Z,38.67
2019-02-09T16:13:46.370Z,38.68
2019-02-09T16:16:13.430Z,38.66
2019-02-09T16:18:40.406Z,38.43
2019-02-09T16:21:07.349Z,38.72
2019-02-09T16:23:34.311Z,38.99
2019-02-09T16:26:01.577Z,39.38
2019-02-09T16:28:28.883Z,39.51
2019-02-09T16:30:55.853Z,39.56
2019-02-09T16:33:22.829Z,39.80
2019-02-09T16:35:49.917Z,39.54
2019-02-09T16:38:16.864Z,39.78
2019-02-09T16:40:43.815Z,39.61
2019-02-09T16:43:10.789Z,39.59
2019-02-09T16:45:37.774Z,39.73
2019-02-09T16:48:05.036Z,39.66
2019-02-09T16:50:32.285Z,39.90
2019-02-09T16:52:59.222Z,39.90
2019-02-09T16:55:29.204Z,40.07
2019-02-09T16:57:56.627Z,39.74
2019-02-09T17:00:23.959Z,39.72
2019-02-09T17:02:50.821Z,39.53
2019-02-09T17:05:17.721Z,39.43
2019-02-09T17:07:44.851Z,39.66
2019-02-09T17:10:11.760Z,40.02
2019-02-09T17:12:38.752Z,40.11
2019-02-09T17:15:05.839Z,39.88
2019-02-09T17:17:33.101Z,40.24
2019-02-09T17:20:00.450Z,40.00
2019-02-09T17:22:27.453Z,39.77
2019-02-09T17:24:54.741Z,39.60
2019-02-09T17:27:21.682Z,39.55
2019-02-09T17:29:48.634Z,40.08
2019-02-09T17:32:15.613Z,39.92
2019-02-09T17:34:42.998Z,40.27
2019-02-09T17:37:10.034Z,39.96
2019-02-09T17:39:40.746Z,40.17
2019-02-09T17:42:07.969Z,39.98
2019-02-09T17:44:34.947Z,39.82
2019-02-09T17:47:02.005Z,39.78
2019-02-09T17:49:29.160Z,39.73
2019-02-09T17:51:56.802Z,39.71
2019-02-09T17:54:26.814Z,39.81
2019-02-09T17:56:53.878Z,40.18
2019-02-09T17:59:20.863Z,40.10
2019-02-09T18:01:48.228Z,41.27
2019-02-09T18:04:29.141Z,41.61
2019-02-09T18:09:29.816Z,40.67
2019-02-09T18:11:57.237Z,41.19
2019-02-09T18:14:26.362Z,40.87
2019-02-09T18:16:54.998Z,41.08
2019-02-09T18:19:23.706Z,40.82
2019-02-09T18:21:50.738Z,40.29
2019-02-09T18:24:26.801Z,40.62
2019-02-09T18:26:54.162Z,40.15
2019-02-09T18:29:21.254Z,40.57
2019-02-09T18:31:48.406Z,40.15
2019-02-09T18:34:22.719Z,39.73
2019-02-09T18:36:51.446Z,39.61
2019-02-09T18:39:19.999Z,39.95
2019-02-09T18:41:49.086Z,39.80
2019-02-09T18:44:16.163Z,39.86
2019-02-09T18:46:43.175Z,39.50
2019-02-09T18:49:10.281Z,39.68
2019-02-09T18:51:37.231Z,39.81
2019-02-09T18:54:04.370Z,39.22
2019-02-09T18:56:31.522Z,39.03
2019-02-09T18:58:59.018Z,38.94
2019-02-09T19:01:26.324Z,39.13
2019-02-09T19:03:53.714Z,39.44
2019-02-09T19:06:20.967Z,38.85
2019-02-09T19:08:48.223Z,39.06
2019-02-09T19:11:15.295Z,39.28
2019-02-09T19:13:42.649Z,39.10
2019-02-09T19:16:09.617Z,38.89
2019-02-09T19:18:37.007Z,39.03
2019-02-09T19:21:03.887Z,39.13
2019-02-09T19:23:31.122Z,38.82
2019-02-09T19:25:58.170Z,38.82
2019-02-09T19:28:25.536Z,38.89
2019-02-09T19:30:52.762Z,38.69
2019-02-09T19:33:20.045Z,39.12
2019-02-09T19:35:47.375Z,38.75
2019-02-09T19:38:14.329Z,38.96
2019-02-09T19:40:42.274Z,39.70
2019-02-09T19:43:11.701Z,40.20
2019-02-09T19:45:39.096Z,39.77
2019-02-09T19:48:06.215Z,39.98
2019-02-09T19:50:33.126Z,40.05
2019-02-09T19:53:05.446Z,40.81
2019-02-09T19:55:32.140Z,41.84
2019-02-09T19:57:59.148Z,40.41
2019-02-09T20:00:26.154Z,40.32
2019-02-09T20:02:53.232Z,40.98
2019-02-09T20:05:20.224Z,40.84
2019-02-09T20:07:47.643Z,41.23
2019-02-09T20:10:16.234Z,40.15
2019-02-09T20:12:43.546Z,40.79
2019-02-09T20:15:10.567Z,40.36
2019-02-09T20:17:37.640Z,40.87
2019-02-09T20:20:04.650Z,39.78
2019-02-09T20:22:32.186Z,40.19
2019-02-09T20:24:59.590Z,39.66
2019-02-09T20:27:29.098Z,39.63
2019-02-09T20:29:56.367Z,39.84
2019-02-09T20:32:23.666Z,39.90
2019-02-09T20:34:50.902Z,40.68
2019-02-09T20:37:18.739Z,40.33
2019-02-09T20:39:46.189Z,40.04
2019-02-09T20:42:13.580Z,40.79
2019-02-09T20:44:40.604Z,39.59
2019-02-09T20:47:10.024Z,39.97
2019-02-09T20:49:40.031Z,39.65
2019-02-09T20:52:07.084Z,39.90
2019-02-09T20:54:34.101Z,39.71
2019-02-09T20:57:01.564Z,39.64
2019-02-09T20:59:28.848Z,39.46
2019-02-09T21:01:55.831Z,39.30
2019-02-09T21:04:24.521Z,39.66
2019-02-09T21:06:51.442Z,39.59
2019-02-09T21:09:18.428Z,39.78
2019-02-09T21:11:45.423Z,39.37
2019-02-09T21:14:12.412Z,39.10
2019-02-09T21:16:41.356Z,39.71
2019-02-09T21:19:09.983Z,39.60
2019-02-09T21:21:38.534Z,39.29
2019-02-09T21:24:10.670Z,39.38
2019-02-09T21:26:36.382Z,39.19
2019-02-09T21:29:03.423Z,40.28
2019-02-09T21:31:32.414Z,40.11
2019-02-09T21:33:59.439Z,39.95
2019-02-09T21:36:26.727Z,40.29
2019-02-09T21:41:44.478Z,40.19
2019-02-09T21:44:11.639Z,40.98
2019-02-09T21:46:38.701Z,40.50
2019-02-09T21:49:08.552Z,40.35
2019-02-09T21:51:36.939Z,39.91
2019-02-09T21:54:05.030Z,39.97
2019-02-09T21:56:35.013Z,40.44
2019-02-09T21:59:02.117Z,40.19
2019-02-09T22:01:29.060Z,40.72
2019-02-09T22:03:57.699Z,40.60
2019-02-09T22:06:24.903Z,40.82
2019-02-09T22:08:52.158Z,40.73
2019-02-09T22:11:21.588Z,40.58
2019-02-09T22:13:51.580Z,40.55
2019-02-09T22:16:18.838Z,40.70
2019-02-09T22:18:45.866Z,40.48
2019-02-09T22:21:13.010Z,40.68
2019-02-09T22:23:40.120Z,40.63
2019-02-09T22:26:13.027Z,40.25
2019-02-09T22:28:35.578Z,40.54
2019-02-09T22:31:02.514Z,40.54
2019-02-09T22:33:29.924Z,40.54
2019-02-09T22:36:00.302Z,40.54
2019-02-09T22:38:27.721Z,40.48
2019-02-09T22:40:54.922Z,40.45
2019-02-09T22:43:21.848Z,40.46
2019-02-09T22:45:48.802Z,40.40
2019-02-09T22:48:15.688Z,40.49
2019-02-09T22:50:42.726Z,40.60
2019-02-09T22:53:09.670Z,40.81
2019-02-09T22:55:36.914Z,40.88
2019-02-09T22:58:03.905Z,40.73
2019-02-09T23:00:31.187Z,41.16
2019-02-09T23:02:59.363Z,41.00
2019-02-09T23:05:26.477Z,40.97
2019-02-09T23:07:53.406Z,41.08
2019-02-09T23:10:20.642Z,41.52
2019-02-09T23:12:48.830Z,41.28
2019-02-09T23:15:16.007Z,41.27
2019-02-09T23:17:43.342Z,41.50
2019-02-09T23:20:10.553Z,41.33
2019-02-09T23:22:37.730Z,41.39
2019-02-09T23:25:04.729Z,41.63
2019-02-09T23:27:32.029Z,41.24
2019-02-09T23:29:59.376Z,41.43
2019-02-09T23:32:26.627Z,41.54
2019-02-09T23:34:53.547Z,41.25
2019-02-09T23:37:20.449Z,41.20
2019-02-09T23:39:47.776Z,41.30
2019-02-09T23:42:14.737Z,41.18
2019-02-09T23:44:41.686Z,41.46
2019-02-09T23:47:08.568Z,41.22
2019-02-09T23:49:35.528Z,41.36
2019-02-09T23:52:02.889Z,41.54
2019-02-09T23:54:29.864Z,41.43
2019-02-09T23:56:57.115Z,41.41
2019-02-09T23:59:24.349Z,41.83
